KBCT/BCT METAR and TAF weather

Enter ICAO airport designator
Station Type Date Time Source
KBCT METAR 2019/08/24 02:47 UTC NOAA

KBCT 240247Z 15008G15KT 6SM -DZ SCT017 BKN037 27/26 A2993


Station Type Date Time Source
KBCT Decoded METAR 2019/08/24 02:47 UTC NOAA

Station name not available
Aug 23, 2019 - 10:47 PM EDT / 2019.08.24 0247 UTC
Wind: from the SSE (150 degrees) at 9 MPH (8 KT) gusting to 17 MPH (15 KT):0
Visibility: 6 mile(s):0
Sky conditions: mostly cloudy
Weather: light drizzle
Temperature: 80 F (27 C)
Dew Point: 78 F (26 C)
Relative Humidity: 94%
Pressure (altimeter): 29.93 in. Hg (1013 hPa)
ob: KBCT 240247Z 15008G15KT 6SM -DZ SCT017 BKN037 27/26 A2993
cycle: 3

Station Type Date Time Source
KBCT TAF UTC NOAA

Error!

Example: see airport list